KCOE

Coeur D'alene - Pappy Boyington Field Airport

Coeur D'alene, Idaho, USA
METAR KCOE 220456Z AUTO 17003KT 10SM -RA FEW033 SCT070 BKN085 16/14 A3003 RMK AO2 LTG DSNT SW-NW RAE09B42 SLPNO P0000 T01610144
Observed Flight Rules
Jun-22 @ 04:56 UTC (32 minutes ago) Visual Flight Rules
Wind Visibility Clouds Conditions
170° at 3 knots 10 miles
  • Few at 3,300' AGL
  • Scattered at 7,000' AGL
  • Broken at 8,500' AGL
  • Light Rain
Temperatures Readings Precipitation
Current 16°C / 61°F
Dewpoint 14°C / 57°F
Humidity 88%
Altimeter 30.03" Hg
Pressure 1017 hPa
Elevation 707
Current Rain 0.005
METAR KCOE 220456Z AUTO 17003KT 10SM -RA FEW033 SCT070 BKN085 16/14 A3003 RMK AO2 LTG DSNT SW-NW RAE09B42 SLPNO P0000 T01610144
Observed Flight Rules
Jun-22 @ 04:56 UTC
(32 minutes ago)
VFR
Wind Visibility
170° at 3 knots 10 miles
Clouds
  • Few at 3,300' AGL
  • Scattered at 7,000' AGL
  • Broken at 8,500' AGL
Conditions
  • Light Rain
Temperature Dewpoint
16°C / 61°F 14°C / 57°F
Humidity Altimeter Pressure
88% 30.03" Hg 1017 hPa
Current Rain
0.005